Time;durP1;ratioP1;P1;durP2;ratioP2;P2;SDS_P1;SDS_P2;PMS_P1;PMS_P2;Temp;Humidity;BMP_temperature;BMP_pressure;BME280_temperature;BME280_humidity;BME280_pressure;Samples;Min_cycle;Max_cycle;Signal;HPM_P1;HPM_P2
2021/05/19 00:01:34;;;;;;;0.00;0.00;;;13.60;72.50;;;;;;5135237;27;20409;-68
2021/05/19 00:04:00;;;;;;;0.00;0.00;;;13.60;72.70;;;;;;5135421;27;20507;-68
2021/05/19 00:06:26;;;;;;;0.00;0.00;;;13.50;72.70;;;;;;5135418;27;20043;-68
2021/05/19 00:08:54;;;;;;;0.00;0.00;;;13.60;72.70;;;;;;5135399;27;20043;-68
2021/05/19 00:11:20;;;;;;;0.00;0.00;;;13.60;72.80;;;;;;5135434;27;20095;-68
2021/05/19 00:13:47;;;;;;;0.00;0.00;;;13.50;73.00;;;;;;5135290;27;20564;-68
2021/05/19 00:16:13;;;;;;;0.00;0.00;;;13.50;72.90;;;;;;5135033;27;20100;-68
2021/05/19 00:18:39;;;;;;;0.00;0.00;;;13.50;73.10;;;;;;5135212;27;20520;-68
2021/05/19 00:21:06;;;;;;;0.00;0.00;;;13.50;73.10;;;;;;5134634;27;20126;-68
2021/05/19 00:23:34;;;;;;;0.00;0.00;;;13.50;73.20;;;;;;5134861;27;20126;-68
2021/05/19 00:26:00;;;;;;;0.00;0.00;;;13.50;73.50;;;;;;5134985;27;20047;-68
2021/05/19 00:28:27;;;;;;;0.00;0.00;;;13.40;73.60;;;;;;5134313;27;20039;-68
2021/05/19 00:30:56;;;;;;;0.00;0.00;;;13.40;73.60;;;;;;5135044;27;20051;-68
2021/05/19 00:33:23;;;;;;;0.00;0.00;;;13.40;73.70;;;;;;5134389;27;20425;-68
2021/05/19 00:35:50;;;;;;;0.00;0.00;;;13.40;73.60;;;;;;5135023;27;20047;-68
2021/05/19 00:38:18;;;;;;;0.00;0.00;;;13.40;73.80;;;;;;5134600;27;20138;-68
2021/05/19 00:40:46;;;;;;;0.08;0.08;;;13.40;73.80;;;;;;5134550;27;20046;-68
2021/05/19 00:43:12;;;;;;;0.00;0.00;;;13.40;73.80;;;;;;5134614;27;20103;-68
2021/05/19 00:45:38;;;;;;;0.00;0.00;;;13.40;73.90;;;;;;5134662;27;20043;-68
2021/05/19 00:48:05;;;;;;;0.00;0.00;;;13.30;74.00;;;;;;5134608;27;20490;-68
2021/05/19 00:50:32;;;;;;;0.00;0.00;;;13.30;73.90;;;;;;5133858;27;20107;-68
2021/05/19 00:52:59;;;;;;;0.00;0.00;;;13.30;74.10;;;;;;5134254;27;20527;-68
2021/05/19 00:55:25;;;;;;;0.00;0.00;;;13.30;74.00;;;;;;5134077;27;20502;-68
2021/05/19 00:57:54;;;;;;;0.00;0.00;;;13.30;74.20;;;;;;5134427;27;20055;-68
2021/05/19 01:00:23;;;;;;;0.00;0.00;;;13.30;74.20;;;;;;5134707;27;20107;-68
2021/05/19 01:02:51;;;;;;;0.00;0.00;;;13.30;74.20;;;;;;5134237;27;20482;-68
2021/05/19 01:05:38;;;;;;;0.00;0.00;;;13.30;74.30;;;;;;5134441;27;20064;-68
2021/05/19 01:10:50;;;;;;;0.00;0.00;;;13.20;74.20;;;;;;5134381;27;20062;-68
2021/05/19 01:13:17;;;;;;;0.00;0.00;;;13.20;74.30;;;;;;5134220;27;20573;-68
2021/05/19 01:15:44;;;;;;;0.00;0.00;;;13.20;74.40;;;;;;5133917;27;20399;-68
2021/05/19 01:18:10;;;;;;;0.00;0.00;;;13.20;74.40;;;;;;5133812;27;20126;-68
2021/05/19 01:20:37;;;;;;;0.00;0.00;;;13.10;74.50;;;;;;5133951;27;20123;-69
2021/05/19 01:23:05;;;;;;;0.00;0.00;;;13.10;74.80;;;;;;5133916;27;20058;-68
2021/05/19 01:25:33;;;;;;;0.00;0.00;;;13.10;74.80;;;;;;5113296;28;20181;-68
2021/05/19 01:28:00;;;;;;;0.00;0.00;;;13.10;74.80;;;;;;5112716;28;20044;-68
2021/05/19 01:30:28;;;;;;;0.00;0.00;;;13.10;74.90;;;;;;5130868;27;20421;-68
2021/05/19 01:32:55;;;;;;;0.00;0.00;;;13.10;74.80;;;;;;5133080;27;20043;-68
2021/05/19 01:35:22;;;;;;;0.00;0.00;;;13.10;75.00;;;;;;5133207;27;20051;-68
2021/05/19 01:37:48;;;;;;;0.05;0.05;;;13.10;75.00;;;;;;5133582;27;20062;-68
2021/05/19 01:40:18;;;;;;;0.00;0.00;;;13.10;75.00;;;;;;5133445;27;20127;-68
2021/05/19 01:42:46;;;;;;;0.00;0.00;;;13.10;75.00;;;;;;5133731;27;20054;-68
2021/05/19 01:45:14;;;;;;;0.00;0.00;;;13.10;75.10;;;;;;5133442;27;20500;-68
2021/05/19 01:47:41;;;;;;;0.00;0.00;;;13.10;75.10;;;;;;5132941;27;20055;-68
2021/05/19 01:50:11;;;;;;;0.00;0.00;;;13.10;75.10;;;;;;5133047;27;20080;-68
2021/05/19 01:52:37;;;;;;;0.05;0.05;;;13.10;75.20;;;;;;5133385;27;20416;-69
2021/05/19 01:55:08;;;;;;;0.00;0.00;;;13.10;75.10;;;;;;5133337;27;20096;-68
2021/05/19 01:57:34;;;;;;;0.00;0.00;;;13.10;75.30;;;;;;5150044;27;20135;-68
2021/05/19 02:00:02;;;;;;;0.00;0.00;;;13.10;75.30;;;;;;5154027;27;20048;-67
2021/05/19 02:02:29;;;;;;;0.00;0.00;;;13.10;75.40;;;;;;5154235;27;20442;-67
2021/05/19 02:04:56;;;;;;;0.00;0.00;;;13.10;75.40;;;;;;5153829;27;20121;-68
2021/05/19 02:07:23;;;;;;;0.00;0.00;;;13.10;75.40;;;;;;5153526;27;20050;-68
2021/05/19 02:09:49;;;;;;;0.00;0.00;;;13.10;75.40;;;;;;5152714;27;20090;-68
2021/05/19 02:12:15;;;;;;;0.00;0.00;;;13.10;75.30;;;;;;5153985;27;20167;-67
2021/05/19 02:14:42;;;;;;;0.00;0.00;;;13.10;75.50;;;;;;5153439;27;20106;-67
2021/05/19 02:17:08;;;;;;;0.00;0.00;;;13.10;75.40;;;;;;5153366;27;20050;-67
2021/05/19 02:19:35;;;;;;;0.00;0.00;;;13.20;75.40;;;;;;5152719;27;20051;-69
2021/05/19 02:22:02;;;;;;;0.10;0.10;;;13.20;75.30;;;;;;5130752;27;20180;-68
2021/05/19 02:24:29;;;;;;;0.00;0.00;;;13.10;75.30;;;;;;5131804;27;20047;-67
2021/05/19 02:26:55;;;;;;;0.00;0.00;;;13.20;75.50;;;;;;5132259;27;20131;-67
2021/05/19 02:29:21;;;;;;;0.00;0.00;;;13.10;75.40;;;;;;5132649;27;20122;-67
2021/05/19 02:31:48;;;;;;;0.00;0.00;;;13.10;75.30;;;;;;5132516;27;20043;-67
2021/05/19 02:34:14;;;;;;;0.00;0.00;;;13.20;75.40;;;;;;5132116;27;20047;-68
2021/05/19 02:36:41;;;;;;;0.00;0.00;;;13.10;75.30;;;;;;5131757;27;20115;-67
2021/05/19 02:39:10;;;;;;;0.00;0.00;;;13.10;75.30;;;;;;5132250;27;20130;-68
2021/05/19 02:41:38;;;;;;;0.00;0.00;;;13.10;75.20;;;;;;5132277;28;20099;-67
2021/05/19 02:44:05;;;;;;;0.00;0.00;;;13.10;75.40;;;;;;5131997;28;20603;-67
2021/05/19 02:46:32;;;;;;;0.00;0.00;;;13.10;75.40;;;;;;5132373;28;20039;-67
2021/05/19 02:49:02;;;;;;;0.00;0.00;;;13.10;75.40;;;;;;5131721;28;20579;-67
2021/05/19 02:51:30;;;;;;;0.00;0.00;;;13.00;75.50;;;;;;5131540;28;20490;-67
2021/05/19 02:53:56;;;;;;;0.00;0.00;;;13.00;75.50;;;;;;5131737;28;20107;-68
2021/05/19 02:56:23;;;;;;;0.00;0.00;;;13.00;75.60;;;;;;5132083;28;20103;-67
2021/05/19 02:58:49;;;;;;;0.10;0.10;;;13.00;75.60;;;;;;5131812;28;20055;-68
2021/05/19 03:01:16;;;;;;;0.08;0.08;;;13.00;75.60;;;;;;5132050;28;20132;-67
2021/05/19 03:03:43;;;;;;;0.00;0.00;;;13.00;75.60;;;;;;5132227;28;20047;-67
2021/05/19 03:06:09;;;;;;;0.00;0.00;;;13.00;75.60;;;;;;5132067;28;20047;-67
2021/05/19 03:08:35;;;;;;;0.00;0.00;;;13.00;75.60;;;;;;5132808;28;20049;-67
2021/05/19 03:11:03;;;;;;;0.00;0.00;;;13.00;75.70;;;;;;5132215;28;20051;-68
2021/05/19 03:13:29;;;;;;;0.00;0.00;;;13.00;76.80;;;;;;5132396;28;20047;-68
2021/05/19 03:15:56;;;;;;;0.00;0.00;;;13.00;75.90;;;;;;5132450;28;20047;-68
2021/05/19 03:18:22;;;;;;;0.10;0.10;;;13.00;76.00;;;;;;5131882;28;20047;-67
2021/05/19 03:20:49;;;;;;;0.00;0.00;;;13.00;76.00;;;;;;5134357;27;20051;-67
2021/05/19 03:23:16;;;;;;;0.00;0.00;;;13.00;76.20;;;;;;5136046;27;20127;-69
2021/05/19 03:25:43;;;;;;;0.00;0.00;;;13.00;76.30;;;;;;5136137;27;20100;-68
2021/05/19 03:28:10;;;;;;;0.00;0.00;;;13.00;76.60;;;;;;5136519;27;20051;-67
2021/05/19 03:30:36;;;;;;;0.00;0.00;;;12.90;76.50;;;;;;5136388;27;20047;-67
2021/05/19 03:33:03;;;;;;;0.10;0.10;;;12.90;76.80;;;;;;5136164;27;20505;-69
2021/05/19 03:35:30;;;;;;;0.00;0.00;;;12.80;76.80;;;;;;5136223;27;20051;-69
2021/05/19 03:37:56;;;;;;;0.00;0.00;;;12.80;76.90;;;;;;5135592;27;20103;-67
2021/05/19 03:40:23;;;;;;;0.00;0.00;;;12.80;76.60;;;;;;5136076;27;20478;-68
2021/05/19 03:42:50;;;;;;;0.00;0.00;;;12.80;76.50;;;;;;5135961;27;20047;-69
2021/05/19 03:45:21;;;;;;;0.00;0.00;;;12.70;76.30;;;;;;5135972;27;20054;-68
2021/05/19 03:47:50;;;;;;;0.00;0.00;;;12.70;76.30;;;;;;5135966;27;20051;-67
2021/05/19 03:50:18;;;;;;;0.00;0.00;;;12.70;76.40;;;;;;5135740;27;20082;-67
2021/05/19 03:52:45;;;;;;;0.00;0.00;;;12.60;76.40;;;;;;5135467;27;20095;-68
2021/05/19 03:55:13;;;;;;;0.00;0.00;;;12.60;76.50;;;;;;5135864;27;20058;-68
2021/05/19 03:57:40;;;;;;;0.08;0.08;;;12.60;76.60;;;;;;5135872;27;20050;-69
2021/05/19 04:00:11;;;;;;;0.00;0.00;;;12.60;76.60;;;;;;5135392;27;20051;-68
2021/05/19 04:02:37;;;;;;;0.00;0.00;;;12.60;76.60;;;;;;5135988;27;20490;-69
2021/05/19 04:05:04;;;;;;;0.00;0.00;;;12.60;76.70;;;;;;5135089;27;20550;-68
2021/05/19 04:07:30;;;;;;;0.00;0.00;;;12.50;76.70;;;;;;5135198;27;20171;-67
2021/05/19 04:09:56;;;;;;;0.00;0.00;;;12.50;76.50;;;;;;5135007;27;20050;-67
2021/05/19 04:12:23;;;;;;;0.00;0.00;;;12.50;76.40;;;;;;5135112;27;20103;-67
2021/05/19 04:14:49;;;;;;;0.00;0.00;;;12.50;77.20;;;;;;5135057;27;20054;-67
2021/05/19 04:17:15;;;;;;;0.00;0.00;;;12.50;76.10;;;;;;5116602;27;20122;-69
2021/05/19 04:19:42;;;;;;;0.00;0.00;;;12.40;75.90;;;;;;5135380;27;20043;-67
2021/05/19 04:22:08;;;;;;;0.00;0.00;;;12.40;75.70;;;;;;5134303;27;20038;-67
2021/05/19 04:24:35;;;;;;;0.00;0.00;;;12.30;75.60;;;;;;5135117;27;20050;-67
2021/05/19 04:27:01;;;;;;;0.00;0.00;;;12.30;75.50;;;;;;5135228;27;20399;-67
2021/05/19 04:29:27;;;;;;;0.10;0.10;;;12.30;75.30;;;;;;5127487;27;20554;-68
2021/05/19 04:31:54;;;;;;;0.00;0.00;;;12.30;76.10;;;;;;5129897;27;20130;-67
2021/05/19 04:34:20;;;;;;;0.00;0.00;;;12.20;75.00;;;;;;5115493;27;20112;-67
2021/05/19 04:36:47;;;;;;;0.10;0.10;;;12.20;74.90;;;;;;5126015;27;20070;-67
2021/05/19 04:39:13;;;;;;;0.00;0.00;;;12.20;74.80;;;;;;5134357;27;20474;-67
2021/05/19 04:41:39;;;;;;;0.00;0.00;;;12.30;74.70;;;;;;5147061;27;20058;-68
2021/05/19 04:44:06;;;;;;;0.00;0.00;;;12.30;74.60;;;;;;5135476;27;20050;-67
2021/05/19 04:46:32;;;;;;;0.00;0.00;;;12.20;74.50;;;;;;5143638;27;20045;-67
2021/05/19 04:48:59;;;;;;;0.00;0.00;;;12.20;74.50;;;;;;5155430;27;20050;-67
2021/05/19 04:51:27;;;;;;;0.00;0.00;;;12.20;74.50;;;;;;5143320;27;20125;-67
2021/05/19 04:53:53;;;;;;;0.00;0.00;;;12.30;74.50;;;;;;5145542;27;20047;-67
2021/05/19 04:56:20;;;;;;;0.00;0.00;;;12.30;74.30;;;;;;5144158;27;20421;-68
2021/05/19 04:58:46;;;;;;;0.00;0.00;;;12.30;74.30;;;;;;5144289;27;20057;-68
2021/05/19 05:01:12;;;;;;;0.00;0.00;;;12.30;74.30;;;;;;5144304;27;20481;-68
2021/05/19 05:03:39;;;;;;;0.10;0.10;;;12.30;74.30;;;;;;5140740;27;20053;-67
2021/05/19 05:06:05;;;;;;;0.10;0.10;;;12.30;74.20;;;;;;5143103;27;20042;-67
2021/05/19 05:08:31;;;;;;;0.00;0.00;;;12.30;74.20;;;;;;5140668;27;20039;-68
2021/05/19 05:10:58;;;;;;;0.00;0.00;;;12.40;74.10;;;;;;5125805;27;20494;-67
2021/05/19 05:13:24;;;;;;;0.08;0.08;;;12.40;74.00;;;;;;5130550;27;20146;-67
2021/05/19 05:15:51;;;;;;;0.03;0.03;;;12.40;74.00;;;;;;5133381;27;20133;-66
2021/05/19 05:18:17;;;;;;;0.00;0.00;;;12.40;74.00;;;;;;5133332;27;20138;-66
2021/05/19 05:20:43;;;;;;;0.00;0.00;;;12.40;74.00;;;;;;5136477;27;20043;-67
2021/05/19 05:23:09;;;;;;;0.00;0.00;;;12.40;73.90;;;;;;5131194;27;20042;-66
2021/05/19 05:25:36;;;;;;;0.10;0.10;;;12.40;73.80;;;;;;5133266;27;20494;-66
2021/05/19 05:28:03;;;;;;;0.00;0.00;;;12.50;73.80;;;;;;5133615;27;20075;-67
2021/05/19 05:30:29;;;;;;;0.00;0.00;;;12.50;73.90;;;;;;5134055;27;20050;-67
2021/05/19 05:32:55;;;;;;;0.00;0.00;;;12.50;73.90;;;;;;5132825;27;20083;-67
2021/05/19 05:35:22;;;;;;;0.00;0.00;;;12.40;73.90;;;;;;5134087;27;20478;-67
2021/05/19 05:37:48;;;;;;;0.00;0.00;;;12.50;73.90;;;;;;5133833;27;20059;-67
2021/05/19 05:40:15;;;;;;;0.00;0.00;;;12.50;74.10;;;;;;5133100;27;20073;-67
2021/05/19 05:42:41;;;;;;;0.00;0.00;;;12.50;73.80;;;;;;5131699;27;20091;-67
2021/05/19 05:45:08;;;;;;;0.00;0.00;;;12.50;73.80;;;;;;5133295;27;20069;-68
2021/05/19 05:47:35;;;;;;;0.00;0.00;;;12.60;73.70;;;;;;5132291;27;20035;-67
2021/05/19 05:50:03;;;;;;;0.00;0.00;;;12.50;73.50;;;;;;5133896;27;20051;-68
2021/05/19 05:52:30;;;;;;;0.00;0.00;;;12.50;73.40;;;;;;5133716;27;20043;-68
2021/05/19 05:54:56;;;;;;;0.00;0.00;;;12.60;73.30;;;;;;5133395;27;20490;-67
2021/05/19 05:57:23;;;;;;;0.00;0.00;;;12.60;73.20;;;;;;5133440;27;20562;-66
2021/05/19 05:59:49;;;;;;;0.00;0.00;;;12.60;73.00;;;;;;5133769;27;20047;-67
2021/05/19 06:02:16;;;;;;;0.00;0.00;;;12.60;73.00;;;;;;5133284;27;20257;-67
2021/05/19 06:04:42;;;;;;;0.00;0.00;;;12.60;72.90;;;;;;5133193;27;20050;-67
2021/05/19 06:07:08;;;;;;;0.10;0.10;;;12.70;72.80;;;;;;5132874;27;20625;-67
2021/05/19 06:09:34;;;;;;;0.00;0.00;;;12.70;72.70;;;;;;5133272;27;20490;-68
2021/05/19 06:12:01;;;;;;;0.10;0.10;;;12.70;72.60;;;;;;5132730;27;20047;-67
2021/05/19 06:14:27;;;;;;;0.05;0.05;;;12.80;72.60;;;;;;5129361;27;20050;-67
2021/05/19 06:16:55;;;;;;;0.00;0.00;;;12.80;72.30;;;;;;5128902;27;20050;-66
2021/05/19 06:19:21;;;;;;;0.08;0.08;;;12.80;72.30;;;;;;5131846;27;20405;-67
2021/05/19 06:21:47;;;;;;;0.00;0.00;;;12.80;72.20;;;;;;5113080;27;20127;-67
2021/05/19 06:24:14;;;;;;;0.00;0.00;;;12.80;72.30;;;;;;5129708;27;20172;-67
2021/05/19 06:26:40;;;;;;;0.00;0.00;;;12.80;72.10;;;;;;5131816;27;20042;-66
2021/05/19 06:29:06;;;;;;;0.00;0.00;;;12.80;72.20;;;;;;5131504;27;20126;-66
2021/05/19 06:31:33;;;;;;;0.00;0.00;;;12.90;72.10;;;;;;5132118;27;20043;-66
2021/05/19 06:33:59;;;;;;;0.00;0.00;;;12.90;72.00;;;;;;5132408;27;20417;-66
2021/05/19 06:36:25;;;;;;;0.00;0.00;;;12.90;72.00;;;;;;5131154;27;20057;-66
2021/05/19 06:38:52;;;;;;;0.00;0.00;;;12.80;72.00;;;;;;5130488;27;20118;-65
2021/05/19 06:41:18;;;;;;;0.00;0.00;;;12.80;72.20;;;;;;5131201;27;20192;-65
2021/05/19 06:43:44;;;;;;;0.00;0.00;;;12.80;72.30;;;;;;5131736;28;20450;-65
2021/05/19 06:46:11;;;;;;;0.00;0.00;;;12.90;72.50;;;;;;5132287;28;20172;-66
2021/05/19 06:48:37;;;;;;;0.00;0.00;;;12.90;72.50;;;;;;5132973;28;20469;-68
2021/05/19 06:51:05;;;;;;;0.00;0.00;;;12.90;72.50;;;;;;5132479;28;20051;-68
2021/05/19 06:53:31;;;;;;;0.00;0.00;;;12.90;72.10;;;;;;5132510;27;20095;-68
2021/05/19 06:55:59;;;;;;;0.00;0.00;;;13.00;72.30;;;;;;5137164;27;20057;-67
2021/05/19 06:58:25;;;;;;;0.03;0.03;;;13.00;72.30;;;;;;5137117;27;20055;-68
2021/05/19 07:00:53;;;;;;;0.00;0.00;;;13.00;72.40;;;;;;5136971;27;20482;-68
2021/05/19 07:03:19;;;;;;;0.00;0.00;;;13.00;72.20;;;;;;5137105;27;20043;-69
2021/05/19 07:05:46;;;;;;;0.00;0.00;;;13.10;72.00;;;;;;5136864;27;20153;-69
2021/05/19 07:08:12;;;;;;;0.00;0.00;;;13.00;71.90;;;;;;5136419;27;20047;-68
2021/05/19 07:10:38;;;;;;;0.00;0.00;;;13.00;72.00;;;;;;5136846;27;20502;-67
2021/05/19 07:13:04;;;;;;;0.00;0.00;;;13.10;72.20;;;;;;5136396;27;20043;-67
2021/05/19 07:15:35;;;;;;;0.00;0.00;;;13.20;72.40;;;;;;5136499;27;20050;-67
2021/05/19 07:18:06;;;;;;;0.00;0.00;;;13.30;72.10;;;;;;5136768;27;20107;-67
2021/05/19 07:20:33;;;;;;;0.00;0.00;;;13.40;72.60;;;;;;5136537;27;20083;-67
2021/05/19 07:22:59;;;;;;;0.00;0.00;;;13.40;71.40;;;;;;5136656;27;20175;-68
2021/05/19 07:25:25;;;;;;;0.00;0.00;;;13.40;71.30;;;;;;5136413;27;20549;-68
2021/05/19 07:27:52;;;;;;;0.00;0.00;;;13.50;71.40;;;;;;5136411;27;20192;-68
2021/05/19 07:30:19;;;;;;;0.00;0.00;;;13.70;71.00;;;;;;5136262;27;20125;-67
2021/05/19 07:32:46;;;;;;;0.00;0.00;;;13.70;70.50;;;;;;5136523;27;20058;-68
2021/05/19 07:35:13;;;;;;;0.00;0.00;;;13.80;70.30;;;;;;5136459;27;20051;-68
2021/05/19 07:37:40;;;;;;;0.00;0.00;;;13.80;69.60;;;;;;5135692;27;20144;-68
2021/05/19 07:40:07;;;;;;;0.00;0.00;;;13.80;69.20;;;;;;5136366;27;20047;-67
2021/05/19 07:42:34;;;;;;;0.00;0.00;;;13.90;69.50;;;;;;5136000;27;20126;-67
2021/05/19 07:45:01;;;;;;;0.00;0.00;;;14.00;69.60;;;;;;5136107;27;20051;-68
2021/05/19 07:47:27;;;;;;;0.00;0.00;;;14.20;69.40;;;;;;5135879;27;20039;-68
2021/05/19 07:49:54;;;;;;;0.00;0.00;;;14.20;68.90;;;;;;5135761;27;20478;-68
2021/05/19 07:52:20;;;;;;;0.00;0.00;;;14.30;68.50;;;;;;5117508;27;20066;-68
2021/05/19 07:54:47;;;;;;;0.00;0.00;;;14.30;67.90;;;;;;5135944;27;20134;-68
2021/05/19 07:57:28;;;;;;;0.00;0.00;;;14.30;69.00;;;;;;5135509;27;20054;-69
2021/05/19 08:00:07;;;;;;;0.00;0.00;;;14.30;67.80;;;;;;5136361;27;20154;-69
2021/05/19 08:02:34;;;;;;;0.00;0.00;;;14.20;67.20;;;;;;5135763;27;20050;-69
2021/05/19 08:05:00;;;;;;;0.00;0.00;;;14.10;66.80;;;;;;5135651;27;20126;-68
2021/05/19 08:07:26;;;;;;;0.00;0.00;;;14.10;67.00;;;;;;5134970;27;20080;-68
2021/05/19 08:09:52;;;;;;;0.00;0.00;;;14.10;67.20;;;;;;5135895;27;20047;-68
2021/05/19 08:12:19;;;;;;;0.00;0.00;;;14.10;67.20;;;;;;5135209;27;20055;-68
2021/05/19 08:14:45;;;;;;;0.00;0.00;;;14.10;67.40;;;;;;5135355;27;20519;-67
2021/05/19 08:17:12;;;;;;;0.00;0.00;;;14.10;67.60;;;;;;5135730;27;20107;-67
2021/05/19 08:19:39;;;;;;;0.00;0.00;;;14.10;67.60;;;;;;5135648;27;20063;-68
2021/05/19 08:22:07;;;;;;;0.00;0.00;;;14.10;67.80;;;;;;5134885;27;20142;-68
2021/05/19 08:24:34;;;;;;;0.00;0.00;;;14.20;67.30;;;;;;5135258;27;20414;-68
2021/05/19 08:27:00;;;;;;;0.00;0.00;;;14.30;66.50;;;;;;5135363;27;20051;-68
2021/05/19 08:29:26;;;;;;;0.00;0.00;;;14.30;66.00;;;;;;5134889;27;20043;-69
2021/05/19 08:31:53;;;;;;;0.00;0.00;;;14.40;66.00;;;;;;5135459;27;20422;-69
2021/05/19 08:34:19;;;;;;;0.00;0.00;;;14.50;65.10;;;;;;5135258;27;20130;-68
2021/05/19 08:36:45;;;;;;;0.00;0.00;;;14.80;64.90;;;;;;5134941;27;20082;-68
2021/05/19 08:39:12;;;;;;;0.00;0.00;;;15.00;64.00;;;;;;5135189;27;20047;-68
2021/05/19 08:41:39;;;;;;;0.00;0.00;;;15.20;64.00;;;;;;5134838;27;20103;-69
2021/05/19 08:44:06;;;;;;;0.00;0.00;;;15.40;63.30;;;;;;5135005;27;20176;-69
2021/05/19 08:46:33;;;;;;;0.00;0.00;;;15.40;62.60;;;;;;5134960;27;20099;-69
2021/05/19 08:49:05;;;;;;;0.00;0.00;;;15.30;61.60;;;;;;5134984;27;20062;-69
2021/05/19 08:51:31;;;;;;;0.00;0.00;;;15.10;61.70;;;;;;5134950;27;20126;-69
2021/05/19 08:53:57;;;;;;;0.00;0.00;;;15.00;62.30;;;;;;5134928;27;20051;-68
2021/05/19 08:56:24;;;;;;;0.00;0.00;;;15.00;62.80;;;;;;5134366;27;20050;-68
2021/05/19 08:58:50;;;;;;;0.00;0.00;;;15.10;63.20;;;;;;5134679;27;20624;-69
2021/05/19 09:01:21;;;;;;;0.00;0.00;;;15.40;62.60;;;;;;5134378;27;20113;-69
2021/05/19 09:04:04;;;;;;;0.00;0.00;;;15.80;62.30;;;;;;5134742;27;20050;-69
2021/05/19 09:06:30;;;;;;;0.00;0.00;;;16.00;60.20;;;;;;5133982;27;20486;-69
2021/05/19 09:08:56;;;;;;;0.00;0.00;;;16.30;59.60;;;;;;5134609;27;20482;-69
2021/05/19 09:11:23;;;;;;;0.00;0.00;;;16.50;59.40;;;;;;5134310;27;20054;-68
2021/05/19 09:13:49;;;;;;;0.00;0.00;;;17.10;59.30;;;;;;5134396;27;20107;-69
2021/05/19 09:16:27;;;;;;;0.00;0.00;;;17.80;57.80;;;;;;5134473;27;20126;-69
2021/05/19 09:18:58;;;;;;;0.00;0.00;;;18.10;56.00;;;;;;5133258;27;20175;-68
2021/05/19 09:21:41;;;;;;;0.00;0.00;;;18.20;54.20;;;;;;5134255;27;20043;-69
2021/05/19 09:24:11;;;;;;;0.00;0.00;;;17.90;53.60;;;;;;5134197;27;20040;-69
2021/05/19 09:26:54;;;;;;;0.00;0.00;;;17.90;55.30;;;;;;5134107;27;20053;-68
2021/05/19 09:29:28;;;;;;;0.00;0.00;;;18.20;54.10;;;;;;5134006;27;20516;-68
2021/05/19 09:32:06;;;;;;;0.00;0.00;;;18.30;53.40;;;;;;5134027;27;20537;-68
2021/05/19 09:34:38;;;;;;;0.00;0.00;;;18.70;53.30;;;;;;5134062;27;20055;-68
2021/05/19 09:37:28;;;;;;;0.00;0.00;;;19.50;54.20;;;;;;5133869;27;20520;-67
2021/05/19 09:39:58;;;;;;;0.00;0.00;;;19.80;50.50;;;;;;5133590;27;20172;-67
2021/05/19 09:42:35;;;;;;;0.00;0.00;;;19.60;50.00;;;;;;5133771;27;20049;-67
2021/05/19 09:45:22;;;;;;;0.00;0.00;;;19.50;50.30;;;;;;5133269;27;20126;-69
2021/05/19 09:47:50;;;;;;;0.00;0.00;;;19.40;49.10;;;;;;5133645;27;20156;-69
2021/05/19 09:50:39;;;;;;;0.00;0.00;;;19.50;49.50;;;;;;5133829;27;20050;-69
2021/05/19 09:53:13;;;;;;;0.00;0.00;;;19.90;48.90;;;;;;5133775;27;20047;-69
2021/05/19 09:55:59;;;;;;;0.00;0.00;;;20.20;46.70;;;;;;5133504;27;20086;-69
2021/05/19 09:58:29;;;;;;;0.00;0.00;;;20.00;47.40;;;;;;5125806;27;20043;-69
2021/05/19 10:00:56;;;;;;;0.00;0.00;;;19.90;47.60;;;;;;5121347;27;20122;-69
2021/05/19 10:03:22;;;;;;;0.00;0.00;;;19.90;48.10;;;;;;5112861;27;20428;-70
2021/05/19 10:06:00;;;;;;;0.00;0.00;;;19.70;47.20;;;;;;5130322;27;20102;-70
2021/05/19 10:08:27;;;;;;;0.00;0.00;;;19.80;48.00;;;;;;5119885;27;20039;-69
2021/05/19 10:10:57;;;;;;;0.00;0.00;;;20.30;47.70;;;;;;5112198;28;20530;-68
2021/05/19 10:13:24;;;;;;;;;;;20.90;46.40;;;;;;5126039;27;20094;-68
2021/05/19 10:15:53;;;;;;;0.00;0.00;;;21.60;45.00;;;;;;5132970;27;20010;-69
2021/05/19 10:18:22;;;;;;;0.00;0.00;;;22.00;43.00;;;;;;5132883;27;20059;-69
2021/05/19 10:20:54;;;;;;;0.00;0.00;;;22.10;41.70;;;;;;5113449;27;20046;-68
2021/05/19 10:23:25;;;;;;;0.00;0.00;;;22.10;41.20;;;;;;5132584;27;20039;-69
2021/05/19 10:26:11;;;;;;;0.00;0.00;;;21.90;40.40;;;;;;5132850;27;20047;-68
2021/05/19 10:28:47;;;;;;;0.00;0.00;;;21.40;41.30;;;;;;5132769;27;20126;-68
2021/05/19 10:31:40;;;;;;;0.00;0.00;;;20.90;42.60;;;;;;5132964;27;20125;-69
2021/05/19 10:34:07;;;;;;;0.00;0.00;;;20.20;44.10;;;;;;5133180;27;20054;-68
2021/05/19 10:36:38;;;;;;;0.00;0.00;;;19.70;45.90;;;;;;5133222;27;20103;-70
2021/05/19 10:39:11;;;;;;;0.00;0.00;;;19.30;47.80;;;;;;5132443;27;20043;-70
2021/05/19 10:41:44;;;;;;;0.00;0.00;;;19.00;49.20;;;;;;5132656;27;20054;-68
2021/05/19 10:44:27;;;;;;;0.00;0.00;;;18.80;49.30;;;;;;5132910;28;20099;-68
2021/05/19 10:47:01;;;;;;;0.00;0.00;;;18.70;49.30;;;;;;5132819;28;20104;-68
2021/05/19 10:58:01;;;;;;;0.00;0.00;;;18.20;51.10;;;;;;5112327;28;20131;-68
2021/05/19 11:00:32;;;;;;;0.00;0.00;;;18.20;51.00;;;;;;5112134;28;20048;-68
2021/05/19 11:03:01;;;;;;;0.00;0.00;;;18.20;50.70;;;;;;5112171;28;20126;-68
2021/05/19 11:05:33;;;;;;;0.00;0.00;;;18.20;50.20;;;;;;5112207;28;20048;-68
2021/05/19 11:08:10;;;;;;;0.00;0.00;;;18.10;49.80;;;;;;5112185;28;20055;-68
2021/05/19 11:10:49;;;;;;;0.00;0.00;;;18.10;50.30;;;;;;5112050;28;20079;-68
2021/05/19 11:13:17;;;;;;;0.00;0.00;;;18.00;50.40;;;;;;5101565;28;20183;-68
2021/05/19 11:18:30;;;;;;;0.00;0.00;;;17.90;50.00;;;;;;5132666;28;20047;-68
2021/05/19 11:20:59;;;;;;;0.00;0.00;;;17.80;50.60;;;;;;5131843;28;20132;-68
2021/05/19 11:23:27;;;;;;;0.00;0.00;;;17.70;50.10;;;;;;5132664;28;20122;-68
2021/05/19 11:26:14;;;;;;;0.00;0.00;;;17.50;50.70;;;;;;5132562;28;20187;-68
2021/05/19 11:28:41;;;;;;;0.00;0.00;;;17.50;51.00;;;;;;5132545;28;20063;-68
2021/05/19 11:31:13;;;;;;;0.00;0.00;;;17.50;51.70;;;;;;5132633;28;20127;-68
2021/05/19 11:33:52;;;;;;;0.00;0.00;;;17.50;52.40;;;;;;5131847;28;20068;-68
2021/05/19 11:36:39;;;;;;;0.00;0.00;;;17.60;51.20;;;;;;5132403;28;20059;-68
2021/05/19 11:39:39;;;;;;;0.00;0.00;;;17.60;50.80;;;;;;5132208;28;20411;-68
2021/05/19 11:42:09;;;;;;;0.00;0.00;;;17.70;51.10;;;;;;5135131;27;20127;-68
2021/05/19 11:44:36;;;;;;;;;;;17.70;50.90;;;;;;5136503;27;20516;-68
2021/05/19 11:47:05;;;;;;;0.00;0.00;;;17.70;51.50;;;;;;5136318;27;19946;-70
2021/05/19 11:49:31;;;;;;;0.00;0.00;;;17.60;50.10;;;;;;5136085;27;20059;-68
2021/05/19 11:51:58;;;;;;;0.00;0.00;;;17.60;49.00;;;;;;5136123;27;20076;-68
2021/05/19 11:54:24;;;;;;;0.00;0.00;;;17.60;48.60;;;;;;5136138;27;20054;-68
2021/05/19 11:56:57;;;;;;;0.00;0.00;;;17.60;48.20;;;;;;5135668;27;20130;-68
2021/05/19 11:59:34;;;;;;;0.00;0.00;;;17.70;49.20;;;;;;5135356;27;20082;-68
2021/05/19 12:02:09;;;;;;;0.00;0.00;;;17.80;49.80;;;;;;5135855;27;20159;-68
2021/05/19 12:04:41;;;;;;;0.00;0.00;;;17.80;50.00;;;;;;5135773;27;20079;-68
2021/05/19 12:07:09;;;;;;;0.00;0.00;;;17.80;49.60;;;;;;5114265;28;20092;-68
2021/05/19 12:09:40;;;;;;;0.00;0.00;;;17.60;48.80;;;;;;5115281;28;20089;-68
2021/05/19 12:12:14;;;;;;;0.00;0.00;;;17.60;48.60;;;;;;5115152;28;20075;-68
2021/05/19 12:14:55;;;;;;;0.00;0.00;;;17.50;48.30;;;;;;5094587;28;20052;-68
2021/05/19 12:17:25;;;;;;;0.00;0.00;;;17.60;48.50;;;;;;5094669;28;20052;-68
2021/05/19 12:19:51;;;;;;;0.00;0.00;;;17.60;49.90;;;;;;5094507;28;20138;-69
2021/05/19 12:22:22;;;;;;;0.00;0.00;;;17.70;49.80;;;;;;5114969;28;20076;-69
2021/05/19 12:24:52;;;;;;;0.00;0.00;;;17.60;49.90;;;;;;5105827;28;20169;-69
2021/05/19 12:27:20;;;;;;;;;;;17.40;50.20;;;;;;5114661;28;20169;-68
2021/05/19 12:29:50;;;;;;;0.00;0.00;;;17.20;51.40;;;;;;5134968;27;20005;-68
2021/05/19 12:32:22;;;;;;;0.00;0.00;;;17.20;53.60;;;;;;5135141;27;20058;-68
2021/05/19 12:35:09;;;;;;;0.00;0.00;;;17.10;55.70;;;;;;5134363;27;20079;-68
2021/05/19 12:37:43;;;;;;;0.00;0.00;;;17.20;56.90;;;;;;5134804;27;20526;-68
2021/05/19 12:40:16;;;;;;;0.00;0.00;;;17.30;56.60;;;;;;5135190;27;20051;-68
2021/05/19 12:42:52;;;;;;;0.00;0.00;;;17.40;55.40;;;;;;5135033;27;20039;-69
2021/05/19 12:45:29;;;;;;;0.00;0.00;;;17.40;54.40;;;;;;5135112;27;20091;-70
2021/05/19 12:48:10;;;;;;;0.00;0.00;;;17.40;53.40;;;;;;5134843;27;20203;-68
2021/05/19 12:50:41;;;;;;;0.00;0.00;;;17.40;54.10;;;;;;5135077;27;20100;-68
2021/05/19 12:53:09;;;;;;;0.00;0.00;;;17.50;54.10;;;;;;5134556;27;20574;-68
2021/05/19 12:55:36;;;;;;;0.00;0.00;;;17.60;53.70;;;;;;5134811;27;20126;-68
2021/05/19 12:58:07;;;;;;;0.00;0.00;;;17.60;52.80;;;;;;5134296;27;20039;-68
2021/05/19 13:00:33;;;;;;;0.00;0.00;;;17.60;52.80;;;;;;5134784;27;20122;-68
2021/05/19 13:03:00;;;;;;;0.00;0.00;;;17.60;51.60;;;;;;5134125;27;20569;-68
2021/05/19 13:05:29;;;;;;;0.00;0.00;;;17.40;50.20;;;;;;5134388;27;20047;-68
2021/05/19 13:07:56;;;;;;;0.00;0.00;;;17.30;50.10;;;;;;5134733;27;20047;-68
2021/05/19 13:10:30;;;;;;;0.00;0.00;;;17.30;50.90;;;;;;5134518;27;20106;-68